Time,TemperatureF,DewpointF,PressureIn,WindDirection,WindDirectionDegrees,WindSpeedMPH,WindSpeedGustMPH,Humidity,HourlyPrecipIn,Conditions,Clouds,dailyrainin,SoftwareType,DateUTC
2013-03-18 00:02:00,17.2,11.4,29.81,NE,45,3.1,5.3,78,0.00,,,0.00,WUHU216HW,2013-03-18 05:02:00,
2013-03-18 00:07:00,17.2,11.4,29.80,ENE,68,5.1,5.1,78,0.00,,,0.00,WUHU216HW,2013-03-18 05:07:00,
2013-03-18 00:12:00,16.8,11.1,29.80,East,82,4.2,5.3,78,0.00,,,0.00,WUHU216HW,2013-03-18 05:12:00,
2013-03-18 00:17:00,16.8,11.4,29.80,ENE,68,0.6,5.3,79,0.00,,,0.00,WUHU216HW,2013-03-18 05:17:00,
2013-03-18 00:22:00,16.8,11.4,29.80,ENE,68,3.8,4.6,79,0.00,,,0.00,WUHU216HW,2013-03-18 05:22:00,
2013-03-18 00:27:00,16.8,11.4,29.80,NE,45,3.3,4.6,79,0.00,,,0.00,WUHU216HW,2013-03-18 05:27:00,
2013-03-18 00:32:00,16.8,11.7,29.79,ENE,66,4.9,5.3,80,0.00,,,0.00,WUHU216HW,2013-03-18 05:32:00,
2013-03-18 00:37:00,16.8,11.7,29.79,ENE,61,2.9,5.3,80,0.00,,,0.00,WUHU216HW,2013-03-18 05:37:00,
2013-03-18 00:42:00,16.8,11.7,29.78,ENE,68,4.9,5.5,80,0.00,,,0.00,WUHU216HW,2013-03-18 05:42:00,
2013-03-18 00:47:00,16.8,11.7,29.77,NE,45,4.9,5.5,80,0.00,,,0.00,WUHU216HW,2013-03-18 05:47:00,
2013-03-18 00:52:00,17.2,12.0,29.77,ENE,68,3.3,4.9,80,0.00,,,0.00,WUHU216HW,2013-03-18 05:52:00,
2013-03-18 00:58:00,17.2,12.3,29.77,NE,45,3.1,4.2,81,0.00,,,0.00,WUHU216HW,2013-03-18 05:58:00,
2013-03-18 01:03:00,17.4,12.4,29.77,ENE,68,4.2,4.4,81,0.00,,,0.00,WUHU216HW,2013-03-18 06:03:00,
2013-03-18 01:08:00,17.2,12.3,29.77,ENE,68,3.1,4.6,81,0.00,,,0.00,WUHU216HW,2013-03-18 06:08:00,
2013-03-18 01:13:00,17.2,12.3,29.76,NE,45,2.9,4.6,81,0.00,,,0.00,WUHU216HW,2013-03-18 06:13:00,
2013-03-18 01:18:00,17.2,12.3,29.77,ENE,68,4.6,4.6,81,0.00,,,0.00,WUHU216HW,2013-03-18 06:18:00,
2013-03-18 01:23:00,17.2,12.3,29.76,East,90,0.0,4.6,81,0.00,,,0.00,WUHU216HW,2013-03-18 06:23:00,
2013-03-18 01:28:00,17.2,12.3,29.76,NE,45,0.0,3.3,81,0.00,,,0.00,WUHU216HW,2013-03-18 06:28:00,
2013-03-18 01:33:00,17.2,12.3,29.76,NE,45,3.3,4.0,81,0.00,,,0.00,WUHU216HW,2013-03-18 06:33:00,
2013-03-18 01:38:00,17.4,12.4,29.76,ENE,68,0.0,4.0,81,0.00,,,0.00,WUHU216HW,2013-03-18 06:38:00,
2013-03-18 01:43:00,17.4,12.7,29.76,NE,45,0.0,4.6,82,0.00,,,0.00,WUHU216HW,2013-03-18 06:43:00,
2013-03-18 01:48:00,17.4,12.7,29.76,NNE,23,0.0,4.6,82,0.00,,,0.00,WUHU216HW,2013-03-18 06:48:00,
2013-03-18 01:53:00,17.2,12.5,29.76,NNE,23,4.9,4.9,82,0.00,,,0.00,WUHU216HW,2013-03-18 06:53:00,
2013-03-18 01:58:00,17.2,12.5,29.76,ENE,68,2.4,4.9,82,0.00,,,0.00,WUHU216HW,2013-03-18 06:58:00,
2013-03-18 02:03:00,17.4,12.7,29.76,NE,45,6.0,6.0,82,0.00,,,0.00,WUHU216HW,2013-03-18 07:03:00,
2013-03-18 02:08:00,17.9,13.5,29.76,NNE,23,1.1,6.0,83,0.00,,,0.00,WUHU216HW,2013-03-18 07:08:00,
2013-03-18 02:13:00,18.3,13.9,29.76,NE,45,3.7,4.0,83,0.00,,,0.00,WUHU216HW,2013-03-18 07:13:00,
2013-03-18 02:18:00,18.5,14.0,29.76,NNE,23,0.0,3.8,83,0.00,,,0.00,WUHU216HW,2013-03-18 07:18:00,
2013-03-18 02:23:00,18.6,14.2,29.76,ENE,68,3.5,4.4,83,0.00,,,0.00,WUHU216HW,2013-03-18 07:23:00,
2013-03-18 02:28:00,18.6,14.2,29.75,NE,45,0.4,4.4,83,0.00,,,0.00,WUHU216HW,2013-03-18 07:28:00,
2013-03-18 02:33:00,18.8,14.4,29.75,NE,45,3.3,4.4,83,0.00,,,0.00,WUHU216HW,2013-03-18 07:33:00,
2013-03-18 02:38:00,19.0,14.6,29.74,NNE,23,1.5,5.1,83,0.00,,,0.00,WUHU216HW,2013-03-18 07:38:00,
2013-03-18 02:43:00,19.0,14.9,29.74,NNE,23,4.9,5.1,84,0.00,,,0.00,WUHU216HW,2013-03-18 07:43:00,
2013-03-18 02:48:00,19.2,15.0,29.73,NNE,23,6.7,6.7,84,0.00,,,0.00,WUHU216HW,2013-03-18 07:48:00,
2013-03-18 02:54:00,19.2,15.0,29.73,NE,45,4.9,6.7,84,0.00,,,0.00,WUHU216HW,2013-03-18 07:54:00,
2013-03-18 02:59:00,19.2,15.0,29.72,NE,45,5.3,5.3,84,0.00,,,0.00,WUHU216HW,2013-03-18 07:59:00,
2013-03-18 03:04:00,19.0,14.9,29.72,NNE,25,2.0,5.8,84,0.00,,,0.00,WUHU216HW,2013-03-18 08:04:00,
2013-03-18 03:09:00,18.8,14.7,29.72,ENE,68,1.1,5.8,84,0.00,,,0.00,WUHU216HW,2013-03-18 08:09:00,
2013-03-18 03:14:00,18.6,14.5,29.72,ENE,68,3.8,4.0,84,0.00,,,0.00,WUHU216HW,2013-03-18 08:14:00,
2013-03-18 03:19:00,18.5,14.3,29.72,NE,45,1.1,3.8,84,0.00,,,0.00,WUHU216HW,2013-03-18 08:19:00,
2013-03-18 03:24:00,18.3,14.1,29.72,NE,45,0.0,2.6,84,0.00,,,0.00,WUHU216HW,2013-03-18 08:24:00,
2013-03-18 03:29:00,18.5,14.3,29.71,NNE,23,5.5,5.5,84,0.00,,,0.00,WUHU216HW,2013-03-18 08:29:00,
2013-03-18 03:34:00,18.3,14.1,29.72,ENE,68,1.7,5.5,84,0.00,,,0.00,WUHU216HW,2013-03-18 08:34:00,
2013-03-18 03:39:00,18.3,14.1,29.70,East,90,3.8,4.9,84,0.00,,,0.00,WUHU216HW,2013-03-18 08:39:00,
2013-03-18 03:44:00,18.3,14.4,29.70,East,87,2.5,4.9,85,0.00,,,0.00,WUHU216HW,2013-03-18 08:44:00,
2013-03-18 03:49:00,18.1,14.2,29.70,NE,45,3.8,5.5,85,0.00,,,0.00,WUHU216HW,2013-03-18 08:49:00,
2013-03-18 03:54:00,18.3,14.4,29.69,East,90,4.9,5.5,85,0.00,,,0.00,WUHU216HW,2013-03-18 08:54:00,
2013-03-18 03:59:00,18.3,14.4,29.69,East,90,4.6,4.9,85,0.00,,,0.00,WUHU216HW,2013-03-18 08:59:00,
2013-03-18 04:04:00,18.6,15.0,29.68,East,79,5.2,5.3,86,0.00,,,0.00,WUHU216HW,2013-03-18 09:04:00,
2013-03-18 04:10:00,18.8,15.2,29.68,ENE,65,5.1,5.5,86,0.00,,,0.00,WUHU216HW,2013-03-18 09:10:00,
2013-03-18 04:15:00,19.0,15.4,29.68,ENE,68,3.4,5.5,86,0.00,,,0.00,WUHU216HW,2013-03-18 09:15:00,
2013-03-18 04:20:00,19.2,15.6,29.68,East,90,2.2,5.1,86,0.00,,,0.00,WUHU216HW,2013-03-18 09:20:00,
2013-03-18 04:25:00,19.2,15.6,29.68,NE,45,0.0,5.1,86,0.00,,,0.00,WUHU216HW,2013-03-18 09:25:00,
2013-03-18 04:30:00,19.5,15.9,29.68,NE,45,3.3,3.3,86,0.00,,,0.00,WUHU216HW,2013-03-18 09:30:00,
2013-03-18 04:35:00,20.1,16.5,29.67,NE,45,3.1,3.8,86,0.00,,,0.00,WUHU216HW,2013-03-18 09:35:00,
2013-03-18 04:40:00,20.8,17.2,29.67,East,90,0.0,3.8,86,0.00,,,0.00,WUHU216HW,2013-03-18 09:40:00,
2013-03-18 04:45:00,21.3,17.7,29.67,East,90,3.1,3.1,86,0.00,,,0.00,WUHU216HW,2013-03-18 09:45:00,
2013-03-18 04:50:00,21.7,18.1,29.67,ENE,68,0.0,3.3,86,0.00,,,0.00,WUHU216HW,2013-03-18 09:50:00,
2013-03-18 04:55:00,21.9,18.3,29.66,ENE,68,3.3,3.3,86,0.00,,,0.00,WUHU216HW,2013-03-18 09:55:00,
2013-03-18 05:00:00,22.2,18.6,29.66,NNE,23,3.5,3.5,86,0.00,,,0.00,WUHU216HW,2013-03-18 10:00:00,
2013-03-18 05:05:00,22.4,18.8,29.66,NE,45,1.3,4.0,86,0.00,,,0.00,WUHU216HW,2013-03-18 10:05:00,
2013-03-18 05:11:00,22.4,18.5,29.66,East,90,3.8,4.0,85,0.00,,,0.00,WUHU216HW,2013-03-18 10:11:00,
2013-03-18 05:16:00,22.2,18.5,29.65,NE,45,5.1,5.1,85,0.00,,,0.00,WUHU216HW,2013-03-18 10:16:00,
2013-03-18 05:21:00,22.2,18.4,29.65,ENE,68,2.0,5.1,85,0.00,,,0.00,WUHU216HW,2013-03-18 10:21:00,
2013-03-18 05:26:00,22.2,18.4,29.65,ENE,68,0.0,3.5,85,0.00,,,0.00,WUHU216HW,2013-03-18 10:26:00,
2013-03-18 05:31:00,22.2,18.4,29.64,NE,45,1.5,2.0,85,0.00,,,0.00,WUHU216HW,2013-03-18 10:31:00,
2013-03-18 05:36:00,22.2,18.4,29.65,ENE,68,2.0,2.0,85,0.00,,,0.00,WUHU216HW,2013-03-18 10:36:00,
2013-03-18 05:41:00,22.4,18.5,29.64,East,90,1.1,2.9,85,0.00,,,0.00,WUHU216HW,2013-03-18 10:41:00,
2013-03-18 05:46:00,22.6,18.7,29.64,ENE,68,0.0,2.9,85,0.00,,,0.00,WUHU216HW,2013-03-18 10:46:00,
2013-03-18 05:51:00,22.8,18.9,29.64,NE,45,1.1,1.7,85,0.00,,,0.00,WUHU216HW,2013-03-18 10:51:00,
2013-03-18 05:56:00,23.1,19.5,29.64,NE,45,0.0,1.7,86,0.00,,,0.00,WUHU216HW,2013-03-18 10:56:00,
2013-03-18 06:02:00,23.1,19.5,29.64,ENE,68,0.0,0.2,86,0.00,,,0.00,WUHU216HW,2013-03-18 11:02:00,
2013-03-18 06:07:00,23.5,19.9,29.64,ENE,68,3.3,3.3,86,0.00,,,0.00,WUHU216HW,2013-03-18 11:07:00,
2013-03-18 06:12:00,23.7,20.1,29.63,East,90,3.3,3.3,86,0.00,,,0.00,WUHU216HW,2013-03-18 11:12:00,
2013-03-18 06:17:00,23.9,20.3,29.63,ESE,113,2.0,5.1,86,0.00,,,0.00,WUHU216HW,2013-03-18 11:17:00,
2013-03-18 06:22:00,24.0,20.2,29.63,East,90,0.0,5.1,85,0.00,,,0.00,WUHU216HW,2013-03-18 11:22:00,
2013-03-18 06:27:00,24.0,20.2,29.63,East,90,2.4,4.4,85,0.00,,,0.00,WUHU216HW,2013-03-18 11:27:00,
2013-03-18 06:32:00,24.4,20.5,29.63,East,95,1.9,4.4,85,0.00,,,0.00,WUHU216HW,2013-03-18 11:32:00,
2013-03-18 06:37:00,24.4,20.5,29.62,East,90,0.8,4.4,85,0.00,,,0.00,WUHU216HW,2013-03-18 11:37:00,
2013-03-18 06:42:00,24.6,21.0,29.62,East,90,0.0,3.1,86,0.00,,,0.00,WUHU216HW,2013-03-18 11:42:00,
2013-03-18 06:47:00,24.9,21.3,29.62,East,90,3.3,3.3,86,0.00,,,0.00,WUHU216HW,2013-03-18 11:47:00,
2013-03-18 06:52:00,25.1,21.5,29.62,ESE,113,0.0,3.3,86,0.00,,,0.00,WUHU216HW,2013-03-18 11:52:00,
2013-03-18 06:57:00,25.3,21.7,29.62,ESE,113,0.0,2.9,86,0.00,,,0.00,WUHU216HW,2013-03-18 11:57:00,
2013-03-18 07:03:00,25.3,21.7,29.62,ESE,113,3.1,3.1,86,0.00,,,0.00,WUHU216HW,2013-03-18 12:03:00,
2013-03-18 07:08:00,25.5,21.8,29.62,East,90,0.6,3.1,86,0.00,,,0.00,WUHU216HW,2013-03-18 12:08:00,
2013-03-18 07:13:00,25.7,22.0,29.62,ESE,113,0.0,0.6,86,0.00,,,0.00,WUHU216HW,2013-03-18 12:13:00,
2013-03-18 07:18:00,25.8,22.2,29.62,East,90,2.5,3.1,86,0.00,,,0.00,WUHU216HW,2013-03-18 12:18:00,
2013-03-18 07:23:00,26.2,22.5,29.61,East,90,4.4,4.9,86,0.00,,,0.00,WUHU216HW,2013-03-18 12:23:00,
2013-03-18 07:28:00,26.4,22.7,29.61,ESE,113,3.3,5.1,86,0.00,,,0.00,WUHU216HW,2013-03-18 12:28:00,
2013-03-18 07:33:00,26.7,23.2,29.61,East,90,4.7,5.5,86,0.00,,,0.00,WUHU216HW,2013-03-18 12:33:00,
2013-03-18 07:38:00,27.1,23.4,29.60,East,97,5.1,7.1,86,0.00,,,0.00,WUHU216HW,2013-03-18 12:38:00,
2013-03-18 07:43:00,27.3,23.6,29.60,SE,135,4.6,7.1,86,0.00,,,0.00,WUHU216HW,2013-03-18 12:43:00,
2013-03-18 07:48:00,27.6,24.0,29.60,East,90,4.6,5.5,86,0.00,,,0.00,WUHU216HW,2013-03-18 12:48:00,
2013-03-18 07:53:00,27.6,24.0,29.59,ESE,102,4.6,5.1,86,0.00,,,0.00,WUHU216HW,2013-03-18 12:53:00,
2013-03-18 07:58:00,28.0,24.0,29.59,ESE,113,3.5,5.3,85,0.00,,,0.00,WUHU216HW,2013-03-18 12:58:00,
2013-03-18 08:04:00,28.4,24.4,29.58,ESE,113,5.1,5.3,85,0.00,,,0.00,WUHU216HW,2013-03-18 13:04:00,
2013-03-18 08:09:00,28.5,24.6,29.58,SE,135,6.4,6.4,85,0.00,,,0.00,WUHU216HW,2013-03-18 13:09:00,
2013-03-18 08:14:00,28.7,24.8,29.57,ESE,113,6.9,6.9,85,0.00,,,0.00,WUHU216HW,2013-03-18 13:14:00,
2013-03-18 08:19:00,28.9,24.9,29.57,East,90,6.9,6.9,85,0.00,,,0.00,WUHU216HW,2013-03-18 13:19:00,
2013-03-18 08:24:00,29.1,24.8,29.57,East,90,3.5,6.9,84,0.00,,,0.00,WUHU216HW,2013-03-18 13:24:00,
2013-03-18 08:29:00,29.1,24.6,29.56,ESE,102,7.6,8.0,84,0.00,,,0.00,WUHU216HW,2013-03-18 13:29:00,
2013-03-18 08:34:00,29.1,24.6,29.56,ESE,113,7.6,8.5,84,0.00,,,0.00,WUHU216HW,2013-03-18 13:34:00,
2013-03-18 08:39:00,29.3,25.0,29.56,East,90,8.5,9.1,84,0.00,,,0.00,WUHU216HW,2013-03-18 13:39:00,
2013-03-18 08:44:00,29.4,24.9,29.55,East,100,4.8,10.0,83,0.00,,,0.00,WUHU216HW,2013-03-18 13:44:00,
2013-03-18 08:49:00,29.8,25.3,29.55,ESE,116,6.1,10.9,83,0.00,,,0.00,WUHU216HW,2013-03-18 13:49:00,
2013-03-18 08:54:00,30.0,25.4,29.55,East,101,8.0,10.9,83,0.00,,,0.00,WUHU216HW,2013-03-18 13:54:00,
2013-03-18 08:59:00,30.3,25.5,29.54,ESE,113,8.7,9.1,82,0.00,,,0.00,WUHU216HW,2013-03-18 13:59:00,
2013-03-18 09:04:00,30.7,25.7,29.54,ESE,113,8.9,11.1,82,0.00,,,0.00,WUHU216HW,2013-03-18 14:04:00,
2013-03-18 09:09:00,30.9,26.0,29.53,ESE,113,6.2,11.1,82,0.00,,,0.00,WUHU216HW,2013-03-18 14:09:00,
2013-03-18 09:14:00,31.2,26.1,29.53,SE,135,10.2,10.2,81,0.00,,,0.00,WUHU216HW,2013-03-18 14:14:00,
2013-03-18 09:19:00,30.9,25.8,29.54,ESE,113,4.4,10.2,81,0.00,,,0.00,WUHU216HW,2013-03-18 14:19:00,
2013-03-18 09:24:00,31.1,25.9,29.53,East,90,7.6,9.1,81,0.00,,,0.00,WUHU216HW,2013-03-18 14:24:00,
2013-03-18 09:29:00,30.9,25.5,29.52,ESE,113,10.2,10.2,80,0.00,,,0.00,WUHU216HW,2013-03-18 14:29:00,
2013-03-18 09:35:00,30.9,25.8,29.52,ESE,102,5.1,10.2,81,0.00,,,0.00,WUHU216HW,2013-03-18 14:35:00,
2013-03-18 09:40:00,31.1,25.7,29.52,East,81,6.8,9.6,80,0.00,,,0.00,WUHU216HW,2013-03-18 14:40:00,
2013-03-18 09:45:00,30.7,25.3,29.52,ESE,113,6.9,9.6,80,0.00,,,0.00,WUHU216HW,2013-03-18 14:45:00,
2013-03-18 09:50:00,30.5,25.1,29.51,East,90,7.1,7.1,80,0.00,,,0.00,WUHU216HW,2013-03-18 14:50:00,
2013-03-18 09:55:00,30.5,25.1,29.51,East,90,5.8,7.1,80,0.00,,,0.00,WUHU216HW,2013-03-18 14:55:00,
2013-03-18 10:00:00,30.9,25.5,29.51,East,90,4.1,5.8,80,0.00,,,0.00,WUHU216HW,2013-03-18 15:00:00,
2013-03-18 10:05:00,31.2,25.8,29.51,ESE,103,5.5,7.3,80,0.00,,,0.00,WUHU216HW,2013-03-18 15:05:00,
2013-03-18 10:10:00,31.6,26.2,29.51,East,90,2.0,7.1,80,0.00,,,0.00,WUHU216HW,2013-03-18 15:10:00,
2013-03-18 10:15:00,32.1,26.4,29.51,East,90,3.8,4.4,79,0.00,,,0.00,WUHU216HW,2013-03-18 15:15:00,
2013-03-18 10:20:00,32.7,26.7,29.51,ESE,105,4.6,6.0,79,0.00,,,0.00,WUHU216HW,2013-03-18 15:20:00,
2013-03-18 10:25:00,32.5,26.4,29.51,ESE,113,2.9,6.0,78,0.00,,,0.00,WUHU216HW,2013-03-18 15:25:00,
2013-03-18 10:30:00,32.1,26.1,29.51,ESE,113,6.9,6.9,78,0.00,,,0.00,WUHU216HW,2013-03-18 15:30:00,
2013-03-18 10:35:00,31.8,25.7,29.50,ESE,113,5.1,6.9,78,0.00,,,0.00,WUHU216HW,2013-03-18 15:35:00,
2013-03-18 10:40:00,31.6,25.7,29.50,ESE,117,4.1,7.8,78,0.00,,,0.00,WUHU216HW,2013-03-18 15:40:00,
2013-03-18 10:46:00,31.8,26.0,29.50,ESE,104,4.2,7.8,79,0.00,,,0.00,WUHU216HW,2013-03-18 15:46:00,
2013-03-18 10:51:00,31.8,26.0,29.49,East,101,3.3,6.4,79,0.00,,,0.00,WUHU216HW,2013-03-18 15:51:00,
2013-03-18 10:56:00,32.1,26.2,29.49,East,100,3.7,7.3,79,0.00,,,0.00,WUHU216HW,2013-03-18 15:56:00,
2013-03-18 11:01:00,32.1,26.4,29.49,East,90,3.8,7.3,79,0.00,,,0.00,WUHU216HW,2013-03-18 16:01:00,
2013-03-18 11:06:00,32.1,26.4,29.49,East,90,5.1,5.1,79,0.00,,,0.00,WUHU216HW,2013-03-18 16:06:00,
2013-03-18 11:11:00,32.3,26.6,29.49,East,81,4.0,5.1,79,0.00,,,0.00,WUHU216HW,2013-03-18 16:11:00,
2013-03-18 11:16:00,31.8,26.0,29.48,East,79,3.7,4.9,79,0.00,,,0.00,WUHU216HW,2013-03-18 16:16:00,
2013-03-18 11:21:00,31.6,26.2,29.47,East,90,4.1,4.2,80,0.00,,,0.00,WUHU216HW,2013-03-18 16:21:00,
2013-03-18 11:26:00,31.2,26.0,29.46,East,90,5.1,5.1,80,0.00,,,0.00,WUHU216HW,2013-03-18 16:26:00,
2013-03-18 11:31:00,31.2,26.1,29.46,East,90,5.1,6.2,81,0.00,,,0.00,WUHU216HW,2013-03-18 16:31:00,
2013-03-18 11:37:00,31.6,26.5,29.46,ESE,113,3.3,6.2,81,0.00,,,0.00,WUHU216HW,2013-03-18 16:37:00,
2013-03-18 11:42:00,31.8,26.7,29.46,East,90,2.6,5.5,81,0.00,,,0.00,WUHU216HW,2013-03-18 16:42:00,
2013-03-18 11:47:00,32.1,27.0,29.46,East,90,4.9,5.5,81,0.00,,,0.00,WUHU216HW,2013-03-18 16:47:00,
2013-03-18 11:52:00,32.5,27.0,29.45,East,90,5.2,6.4,80,0.00,,,0.00,WUHU216HW,2013-03-18 16:52:00,
2013-03-18 11:57:00,32.7,27.2,29.46,East,90,5.3,6.4,80,0.00,,,0.00,WUHU216HW,2013-03-18 16:57:00,
2013-03-18 12:02:00,33.0,27.5,29.46,ESE,102,4.1,5.3,80,0.00,,,0.00,WUHU216HW,2013-03-18 17:02:00,
2013-03-18 12:07:00,33.8,28.2,29.45,ESE,113,4.4,4.4,80,0.00,,,0.00,WUHU216HW,2013-03-18 17:07:00,
2013-03-18 12:12:00,34.3,28.4,29.46,East,90,1.7,5.3,79,0.00,,,0.00,WUHU216HW,2013-03-18 17:12:00,
2013-03-18 12:17:00,34.8,28.9,29.45,ESE,113,4.6,5.3,79,0.00,,,0.00,WUHU216HW,2013-03-18 17:17:00,
2013-03-18 12:22:00,35.7,29.5,29.45,ESE,113,0.0,4.6,78,0.00,,,0.00,WUHU216HW,2013-03-18 17:22:00,
2013-03-18 12:27:00,35.9,29.4,29.45,ESE,113,0.0,3.5,77,0.00,,,0.00,WUHU216HW,2013-03-18 17:27:00,
2013-03-18 12:32:00,36.1,29.7,29.45,East,90,0.0,1.5,76,0.00,,,0.00,WUHU216HW,2013-03-18 17:32:00,
2013-03-18 12:37:00,36.3,29.4,29.45,ESE,113,0.0,3.1,76,0.00,,,0.00,WUHU216HW,2013-03-18 17:37:00,
2013-03-18 12:43:00,36.8,29.9,29.44,ESE,113,0.0,3.1,76,0.00,,,0.00,WUHU216HW,2013-03-18 17:43:00,
2013-03-18 12:48:00,37.2,30.0,29.44,ESE,113,0.0,0.0,75,0.00,,,0.00,WUHU216HW,2013-03-18 17:48:00,
2013-03-18 12:53:00,37.5,30.3,29.44,ESE,113,0.0,0.0,75,0.00,,,0.00,WUHU216HW,2013-03-18 17:53:00,
2013-03-18 12:58:00,37.9,30.2,29.44,ESE,113,0.0,0.0,74,0.00,,,0.00,WUHU216HW,2013-03-18 17:58:00,
2013-03-18 13:03:00,37.9,30.3,29.43,SE,135,0.0,0.0,74,0.00,,,0.00,WUHU216HW,2013-03-18 18:03:00,
2013-03-18 13:08:00,37.9,30.0,29.43,SE,135,0.0,0.0,73,0.00,,,0.00,WUHU216HW,2013-03-18 18:08:00,
2013-03-18 13:13:00,37.4,29.5,29.43,SE,135,0.0,0.0,73,0.00,,,0.00,WUHU216HW,2013-03-18 18:13:00,
2013-03-18 13:18:00,37.0,29.1,29.43,SE,135,0.0,0.0,73,0.00,,,0.00,WUHU216HW,2013-03-18 18:18:00,
2013-03-18 13:23:00,37.0,29.1,29.43,SE,135,0.0,0.0,73,0.00,,,0.00,WUHU216HW,2013-03-18 18:23:00,
2013-03-18 13:28:00,37.5,30.0,29.43,SE,135,0.0,0.0,74,0.00,,,0.00,WUHU216HW,2013-03-18 18:28:00,
2013-03-18 13:33:00,38.3,30.3,29.42,SE,135,0.0,0.0,73,0.00,,,0.00,WUHU216HW,2013-03-18 18:33:00,
2013-03-18 13:38:00,38.8,30.5,29.42,SE,135,0.0,0.0,72,0.00,,,0.00,WUHU216HW,2013-03-18 18:38:00,
2013-03-18 13:43:00,39.0,30.7,29.42,SE,135,0.0,0.0,72,0.00,,,0.00,WUHU216HW,2013-03-18 18:43:00,
2013-03-18 13:48:00,39.2,30.5,29.41,SE,135,0.0,0.0,71,0.00,,,0.00,WUHU216HW,2013-03-18 18:48:00,
2013-03-18 13:53:00,39.0,30.3,29.41,SE,135,0.0,0.0,71,0.00,,,0.00,WUHU216HW,2013-03-18 18:53:00,
2013-03-18 13:58:00,39.3,30.7,29.41,SSE,158,0.0,0.0,71,0.00,,,0.00,WUHU216HW,2013-03-18 18:58:00,
2013-03-18 14:04:00,39.2,30.5,29.40,SSE,158,0.0,0.0,71,0.00,,,0.00,WUHU216HW,2013-03-18 19:04:00,
2013-03-18 14:09:00,39.0,30.3,29.40,SSE,158,0.0,0.0,71,0.00,,,0.00,WUHU216HW,2013-03-18 19:09:00,
2013-03-18 14:14:00,38.4,29.5,29.39,SE,135,0.0,0.0,70,0.00,,,0.00,WUHU216HW,2013-03-18 19:14:00,
2013-03-18 14:19:00,37.9,29.3,29.38,SE,135,0.0,0.0,71,0.00,,,0.00,WUHU216HW,2013-03-18 19:19:00,
2013-03-18 14:24:00,37.2,28.7,29.38,ESE,113,0.0,0.0,71,0.00,,,0.00,WUHU216HW,2013-03-18 19:24:00,
2013-03-18 14:29:00,36.6,28.5,29.38,ESE,113,0.0,0.0,72,0.00,,,0.00,WUHU216HW,2013-03-18 19:29:00,
2013-03-18 14:34:00,36.3,28.1,29.38,ESE,113,0.0,0.0,72,0.00,,,0.00,WUHU216HW,2013-03-18 19:34:00,
2013-03-18 14:39:00,36.3,28.4,29.37,ESE,113,0.0,0.0,73,0.00,,,0.00,WUHU216HW,2013-03-18 19:39:00,
2013-03-18 14:44:00,36.3,28.4,29.37,ESE,113,0.0,0.0,73,0.00,,,0.00,WUHU216HW,2013-03-18 19:44:00,
2013-03-18 14:50:00,36.6,28.8,29.37,ESE,113,0.0,0.0,73,0.00,,,0.00,WUHU216HW,2013-03-18 19:50:00,
2013-03-18 14:55:00,37.2,29.3,29.37,ESE,113,0.0,0.0,73,0.00,,,0.00,WUHU216HW,2013-03-18 19:55:00,
2013-03-18 15:00:00,37.4,29.5,29.37,ESE,113,0.0,0.0,73,0.00,,,0.00,WUHU216HW,2013-03-18 20:00:00,
2013-03-18 15:05:00,37.7,29.8,29.36,ESE,113,0.0,0.0,73,0.00,,,0.00,WUHU216HW,2013-03-18 20:05:00,
2013-03-18 15:10:00,38.6,30.7,29.36,ESE,113,0.0,0.0,73,0.00,,,0.00,WUHU216HW,2013-03-18 20:10:00,
2013-03-18 15:15:00,39.3,31.0,29.36,ESE,113,0.0,0.0,72,0.00,,,0.00,WUHU216HW,2013-03-18 20:15:00,
2013-03-18 15:20:00,39.0,30.3,29.36,SSE,158,0.0,0.0,71,0.00,,,0.00,WUHU216HW,2013-03-18 20:20:00,
2013-03-18 15:25:00,38.8,29.8,29.36,South,180,0.0,0.0,70,0.00,,,0.00,WUHU216HW,2013-03-18 20:25:00,
2013-03-18 15:30:00,38.4,29.8,29.36,South,180,0.0,0.0,71,0.00,,,0.00,WUHU216HW,2013-03-18 20:30:00,
2013-03-18 15:35:00,39.0,30.3,29.35,South,180,0.0,0.0,71,0.00,,,0.00,WUHU216HW,2013-03-18 20:35:00,
2013-03-18 15:40:00,40.2,31.2,29.35,South,180,0.0,0.0,71,0.00,,,0.00,WUHU216HW,2013-03-18 20:40:00,
2013-03-18 15:46:00,41.1,32.1,29.36,South,180,0.0,0.0,70,0.00,,,0.00,WUHU216HW,2013-03-18 20:46:00,
2013-03-18 15:51:00,41.7,31.9,29.36,SSE,158,0.0,0.0,68,0.00,,,0.00,WUHU216HW,2013-03-18 20:51:00,
2013-03-18 15:56:00,42.4,32.6,29.36,SW,225,0.0,0.0,67,0.00,,,0.00,WUHU216HW,2013-03-18 20:56:00,
2013-03-18 16:01:00,42.4,31.8,29.36,South,180,0.0,0.0,66,0.00,,,0.00,WUHU216HW,2013-03-18 21:01:00,
2013-03-18 16:06:00,42.6,31.6,29.36,SSE,158,0.0,0.0,65,0.00,,,0.00,WUHU216HW,2013-03-18 21:06:00,
2013-03-18 16:12:00,42.4,31.0,29.36,South,180,0.0,0.0,64,0.00,,,0.00,WUHU216HW,2013-03-18 21:12:00,
2013-03-18 16:17:00,41.5,30.6,29.36,SSW,203,0.0,0.0,65,0.00,,,0.00,WUHU216HW,2013-03-18 21:17:00,
2013-03-18 16:22:00,40.8,29.9,29.36,SSW,203,0.0,0.0,65,0.00,,,0.00,WUHU216HW,2013-03-18 21:22:00,
2013-03-18 16:27:00,39.7,29.2,29.36,SSW,203,0.0,0.0,66,0.00,,,0.00,WUHU216HW,2013-03-18 21:27:00,
2013-03-18 16:32:00,39.3,29.2,29.36,SSW,203,0.0,0.0,67,0.03,,,0.03,WUHU216HW,2013-03-18 21:32:00,
2013-03-18 16:37:00,39.0,28.9,29.36,SSW,203,0.0,0.0,67,0.03,,,0.03,WUHU216HW,2013-03-18 21:37:00,
2013-03-18 16:42:00,39.0,29.2,29.36,South,180,0.0,0.0,68,0.03,,,0.03,WUHU216HW,2013-03-18 21:42:00,
2013-03-18 16:47:00,38.8,29.1,29.35,SSW,203,0.0,0.0,68,0.03,,,0.03,WUHU216HW,2013-03-18 21:47:00,
2013-03-18 16:52:00,38.4,29.1,29.35,SSW,203,0.0,0.0,69,0.03,,,0.03,WUHU216HW,2013-03-18 21:52:00,
2013-03-18 16:57:00,37.9,28.6,29.35,SSW,203,0.0,0.0,69,0.03,,,0.03,WUHU216HW,2013-03-18 21:57:00,
2013-03-18 17:02:00,37.5,28.7,29.34,SSW,203,0.0,0.0,70,0.03,,,0.03,WUHU216HW,2013-03-18 22:02:00,
2013-03-18 17:07:00,37.5,29.0,29.34,SSW,203,0.0,0.0,71,0.03,,,0.03,WUHU216HW,2013-03-18 22:07:00,
2013-03-18 17:12:00,37.2,28.7,29.35,SW,225,0.0,0.0,71,0.03,,,0.03,WUHU216HW,2013-03-18 22:12:00,
2013-03-18 17:17:00,37.2,28.7,29.35,SW,225,0.0,0.0,71,0.03,,,0.03,WUHU216HW,2013-03-18 22:17:00,
2013-03-18 17:22:00,37.2,29.0,29.34,SW,225,0.0,0.0,72,0.03,,,0.03,WUHU216HW,2013-03-18 22:22:00,
2013-03-18 17:27:00,37.2,29.0,29.34,SSW,203,0.0,0.0,72,0.03,,,0.03,WUHU216HW,2013-03-18 22:27:00,
2013-03-18 17:32:00,37.0,29.1,29.34,SW,225,0.0,0.0,73,0.00,,,0.03,WUHU216HW,2013-03-18 22:32:00,
2013-03-18 17:37:00,36.5,28.6,29.34,SW,225,0.0,0.0,73,0.00,,,0.03,WUHU216HW,2013-03-18 22:37:00,
2013-03-18 17:42:00,36.1,28.4,29.33,SW,225,0.0,0.0,73,0.00,,,0.03,WUHU216HW,2013-03-18 22:42:00,
2013-03-18 17:47:00,35.4,27.8,29.34,SW,225,0.0,0.0,74,0.00,,,0.03,WUHU216HW,2013-03-18 22:47:00,
2013-03-18 17:52:00,34.8,27.3,29.34,SW,225,0.0,0.0,74,0.00,,,0.03,WUHU216HW,2013-03-18 22:52:00,
2013-03-18 17:57:00,34.3,27.1,29.33,SW,225,0.0,0.0,75,0.00,,,0.03,WUHU216HW,2013-03-18 22:57:00,
2013-03-18 18:02:00,33.9,27.1,29.33,SW,225,0.0,0.0,76,0.00,,,0.03,WUHU216HW,2013-03-18 23:02:00,
2013-03-18 18:08:00,33.6,26.7,29.33,SSW,203,0.0,0.0,76,0.00,,,0.03,WUHU216HW,2013-03-18 23:08:00,
2013-03-18 18:12:00,33.4,26.9,29.33,SW,225,0.0,0.0,77,0.00,,,0.03,WUHU216HW,2013-03-18 23:12:00,
2013-03-18 18:18:00,33.0,26.6,29.33,SW,225,0.0,0.0,77,0.00,,,0.03,WUHU216HW,2013-03-18 23:18:00,
2013-03-18 18:23:00,32.7,26.7,29.33,SW,225,0.0,0.0,78,0.00,,,0.03,WUHU216HW,2013-03-18 23:23:00,
2013-03-18 18:28:00,32.5,26.4,29.32,WSW,248,0.0,0.0,78,0.00,,,0.03,WUHU216HW,2013-03-18 23:28:00,
2013-03-18 18:33:00,32.3,26.6,29.33,WSW,248,0.0,0.0,78,0.00,,,0.03,WUHU216HW,2013-03-18 23:33:00,
2013-03-18 18:38:00,32.1,26.4,29.33,SW,225,0.0,0.0,79,0.00,,,0.03,WUHU216HW,2013-03-18 23:38:00,
2013-03-18 18:43:00,31.8,26.0,29.33,SW,225,0.0,0.0,79,0.00,,,0.03,WUHU216HW,2013-03-18 23:43:00,
2013-03-18 18:48:00,31.8,26.4,29.33,SW,225,0.0,0.0,80,0.00,,,0.03,WUHU216HW,2013-03-18 23:48:00,
2013-03-18 18:53:00,31.6,26.2,29.33,SW,225,0.0,0.0,80,0.00,,,0.03,WUHU216HW,2013-03-18 23:53:00,
2013-03-18 18:58:00,31.4,26.0,29.34,WSW,248,0.0,0.0,80,0.00,,,0.03,WUHU216HW,2013-03-18 23:58:00,
2013-03-18 19:03:00,31.2,25.8,29.33,WSW,248,0.0,0.0,80,0.00,,,0.03,WUHU216HW,2013-03-19 00:03:00,
2013-03-18 19:08:00,31.1,25.9,29.34,SW,225,0.0,0.0,81,0.00,,,0.03,WUHU216HW,2013-03-19 00:08:00,
2013-03-18 19:13:00,30.9,26.0,29.35,West,270,0.0,0.0,82,0.00,,,0.03,WUHU216HW,2013-03-19 00:13:00,
2013-03-18 19:19:00,30.0,24.7,29.36,WNW,293,0.0,0.0,81,0.00,,,0.03,WUHU216HW,2013-03-19 00:19:00,
2013-03-18 19:24:00,28.7,23.6,29.36,WSW,248,0.0,0.0,81,0.00,,,0.03,WUHU216HW,2013-03-19 00:24:00,
2013-03-18 19:29:00,27.6,22.2,29.37,West,270,0.0,0.0,80,0.00,,,0.03,WUHU216HW,2013-03-19 00:29:00,
2013-03-18 19:34:00,27.1,22.0,29.37,West,270,0.0,0.0,81,0.00,,,0.03,WUHU216HW,2013-03-19 00:34:00,
2013-03-18 19:39:00,26.4,21.0,29.38,NW,315,0.0,0.0,80,0.00,,,0.03,WUHU216HW,2013-03-19 00:39:00,
2013-03-18 19:44:00,25.7,20.3,29.38,SW,225,0.0,0.0,80,0.00,,,0.03,WUHU216HW,2013-03-19 00:44:00,
2013-03-18 19:49:00,24.9,19.7,29.38,WSW,248,0.0,0.0,80,0.00,,,0.03,WUHU216HW,2013-03-19 00:49:00,
2013-03-18 19:54:00,24.6,19.2,29.38,WSW,248,0.0,0.0,80,0.00,,,0.03,WUHU216HW,2013-03-19 00:54:00,
2013-03-18 19:59:00,24.0,18.8,29.39,WNW,293,0.0,0.0,80,0.00,,,0.03,WUHU216HW,2013-03-19 00:59:00,
2013-03-18 20:04:00,23.5,18.3,29.39,WNW,293,0.0,0.0,80,0.04,,,0.07,WUHU216HW,2013-03-19 01:04:00,
2013-03-18 20:09:00,23.3,18.1,29.40,WNW,293,0.0,0.0,80,0.04,,,0.07,WUHU216HW,2013-03-19 01:09:00,
2013-03-18 20:14:00,23.1,17.9,29.40,SW,225,0.0,0.0,80,0.04,,,0.07,WUHU216HW,2013-03-19 01:14:00,
2013-03-18 20:19:00,22.8,17.6,29.40,WNW,293,0.0,0.0,80,0.04,,,0.07,WUHU216HW,2013-03-19 01:19:00,
2013-03-18 20:24:00,22.4,17.2,29.40,WNW,293,0.0,0.0,80,0.04,,,0.07,WUHU216HW,2013-03-19 01:24:00,
2013-03-18 20:30:00,22.2,17.0,29.40,WNW,293,0.0,0.0,80,0.04,,,0.07,WUHU216HW,2013-03-19 01:30:00,
2013-03-18 20:35:00,22.1,16.8,29.40,SW,225,0.0,0.0,80,0.04,,,0.07,WUHU216HW,2013-03-19 01:35:00,
2013-03-18 20:40:00,22.1,16.9,29.41,WSW,248,0.0,0.0,81,0.04,,,0.07,WUHU216HW,2013-03-19 01:40:00,
2013-03-18 20:45:00,21.9,16.9,29.41,WSW,248,0.0,0.0,81,0.04,,,0.07,WUHU216HW,2013-03-19 01:45:00,
2013-03-18 20:50:00,21.9,16.9,29.41,WSW,248,0.0,0.0,81,0.04,,,0.07,WUHU216HW,2013-03-19 01:50:00,
2013-03-18 20:55:00,21.9,16.9,29.41,NW,315,0.0,0.0,81,0.04,,,0.07,WUHU216HW,2013-03-19 01:55:00,
2013-03-18 21:00:00,21.7,16.7,29.41,North,0,0.0,0.0,81,0.04,,,0.07,WUHU216HW,2013-03-19 02:00:00,
2013-03-18 21:05:00,21.5,16.6,29.42,West,270,0.0,0.0,81,0.00,,,0.07,WUHU216HW,2013-03-19 02:05:00,
2013-03-18 21:10:00,21.3,15.8,29.42,WNW,293,0.0,0.0,79,0.00,,,0.07,WUHU216HW,2013-03-19 02:10:00,
2013-03-18 21:15:00,21.0,15.4,29.43,West,270,0.0,0.0,79,0.00,,,0.07,WUHU216HW,2013-03-19 02:15:00,
2013-03-18 21:20:00,20.8,15.3,29.43,West,270,0.0,0.0,79,0.00,,,0.07,WUHU216HW,2013-03-19 02:20:00,
2013-03-18 21:25:00,20.4,14.9,29.43,SSW,203,0.0,0.0,79,0.00,,,0.07,WUHU216HW,2013-03-19 02:25:00,
2013-03-18 21:30:00,20.3,14.7,29.43,West,270,0.0,0.0,79,0.00,,,0.07,WUHU216HW,2013-03-19 02:30:00,
2013-03-18 21:35:00,19.9,14.4,29.43,SW,225,0.0,0.0,79,0.00,,,0.07,WUHU216HW,2013-03-19 02:35:00,
2013-03-18 21:40:00,19.5,14.3,29.44,WSW,248,0.0,0.0,80,0.00,,,0.07,WUHU216HW,2013-03-19 02:40:00,
2013-03-18 21:45:00,19.4,14.1,29.44,WNW,293,0.0,0.0,80,0.00,,,0.07,WUHU216HW,2013-03-19 02:45:00,
2013-03-18 21:50:00,19.0,13.8,29.44,WSW,248,0.0,0.0,80,0.00,,,0.07,WUHU216HW,2013-03-19 02:50:00,
2013-03-18 21:55:00,18.8,13.6,29.44,WSW,248,0.0,0.0,80,0.00,,,0.07,WUHU216HW,2013-03-19 02:55:00,
2013-03-18 22:00:00,18.5,13.2,29.44,NW,315,0.0,0.0,80,0.00,,,0.07,WUHU216HW,2013-03-19 03:00:00,
2013-03-18 22:05:00,18.3,13.1,29.44,SW,225,0.0,0.0,80,0.00,,,0.07,WUHU216HW,2013-03-19 03:05:00,
2013-03-18 22:10:00,18.1,12.9,29.44,WSW,248,0.0,0.0,80,0.00,,,0.07,WUHU216HW,2013-03-19 03:10:00,
2013-03-18 22:16:00,17.9,12.7,29.44,WSW,248,0.0,0.0,80,0.00,,,0.07,WUHU216HW,2013-03-19 03:16:00,
2013-03-18 22:21:00,17.7,12.5,29.44,NW,315,0.0,0.0,80,0.00,,,0.07,WUHU216HW,2013-03-19 03:21:00,
2013-03-18 22:26:00,17.7,12.5,29.45,West,270,0.0,0.0,80,0.00,,,0.07,WUHU216HW,2013-03-19 03:26:00,
2013-03-18 22:31:00,17.4,12.2,29.45,WSW,248,0.0,0.0,80,0.00,,,0.07,WUHU216HW,2013-03-19 03:31:00,
2013-03-18 22:36:00,17.4,12.2,29.45,WSW,248,0.0,0.0,80,0.00,,,0.07,WUHU216HW,2013-03-19 03:36:00,
2013-03-18 22:41:00,17.4,12.2,29.45,West,270,0.0,0.0,80,0.00,,,0.07,WUHU216HW,2013-03-19 03:41:00,
2013-03-18 22:46:00,17.2,12.0,29.45,SW,225,0.0,0.0,80,0.00,,,0.07,WUHU216HW,2013-03-19 03:46:00,
2013-03-18 22:51:00,17.2,12.0,29.45,SW,225,0.0,0.0,80,0.00,,,0.07,WUHU216HW,2013-03-19 03:51:00,
2013-03-18 22:57:00,17.0,12.0,29.45,SSW,203,0.0,0.0,80,0.00,,,0.07,WUHU216HW,2013-03-19 03:57:00,
2013-03-18 23:00:00,16.8,11.7,29.45,West,270,0.0,0.0,80,0.00,,,0.07,WUHU216HW,2013-03-19 04:00:00,
2013-03-18 23:01:00,16.8,11.7,29.45,SSW,203,0.0,0.0,80,0.00,,,0.07,WUHU216HW,2013-03-19 04:01:00,
2013-03-18 23:06:00,16.8,11.7,29.45,West,270,0.0,0.0,80,0.00,,,0.07,WUHU216HW,2013-03-19 04:06:00,
2013-03-18 23:11:00,16.7,11.5,29.45,WSW,248,0.0,0.0,80,0.00,,,0.07,WUHU216HW,2013-03-19 04:11:00,
2013-03-18 23:16:00,16.7,11.5,29.45,West,270,0.0,0.0,80,0.00,,,0.07,WUHU216HW,2013-03-19 04:16:00,
2013-03-18 23:21:00,16.5,11.4,29.45,WSW,248,0.0,0.0,80,0.00,,,0.07,WUHU216HW,2013-03-19 04:21:00,
2013-03-18 23:26:00,16.3,11.2,29.45,SW,225,0.0,0.0,80,0.00,,,0.07,WUHU216HW,2013-03-19 04:26:00,
2013-03-18 23:31:00,16.3,11.2,29.45,WSW,248,0.0,0.0,80,0.00,,,0.07,WUHU216HW,2013-03-19 04:31:00,
2013-03-18 23:36:00,16.3,11.2,29.45,WSW,248,0.0,0.0,80,0.00,,,0.07,WUHU216HW,2013-03-19 04:36:00,
2013-03-18 23:42:00,16.1,11.0,29.44,WSW,248,0.0,0.0,80,0.00,,,0.07,WUHU216HW,2013-03-19 04:42:00,
2013-03-18 23:47:00,16.1,11.0,29.45,SW,225,0.0,0.0,80,0.00,,,0.07,WUHU216HW,2013-03-19 04:47:00,
2013-03-18 23:52:00,16.1,11.0,29.45,NW,315,0.0,0.0,80,0.00,,,0.07,WUHU216HW,2013-03-19 04:52:00,
2013-03-18 23:57:00,15.9,11.0,29.45,WSW,248,0.0,0.0,80,0.00,,,0.07,WUHU216HW,2013-03-19 04:57:00,